createdAt,value
2022-12-15T00:00:55.845Z,21.10
2022-12-15T00:03:44.090Z,27.10
2022-12-15T00:06:32.137Z,33.50
2022-12-15T00:09:20.709Z,33.80
2022-12-15T00:12:08.636Z,25.20
2022-12-15T00:14:56.281Z,22.60
2022-12-15T00:17:44.312Z,25.40
2022-12-15T00:20:32.339Z,26.40
2022-12-15T00:23:27.390Z,23.60
2022-12-15T00:26:15.730Z,20.80
2022-12-15T00:29:03.648Z,19.60
2022-12-15T00:31:51.590Z,28.20
2022-12-15T00:34:39.522Z,27.80
2022-12-15T00:37:27.386Z,23.40
2022-12-15T00:39:59.722Z,24.50
2022-12-15T00:42:30.090Z,24.10
2022-12-15T00:45:00.879Z,17.70
2022-12-15T00:47:32.559Z,21.20
2022-12-15T00:50:20.603Z,18.60
2022-12-15T00:53:11.471Z,17.00
2022-12-15T00:55:59.221Z,19.90
2022-12-15T00:58:46.986Z,18.50
2022-12-15T01:01:34.685Z,17.40
2022-12-15T01:04:22.981Z,19.80
2022-12-15T01:07:10.709Z,24.40
2022-12-15T01:09:58.745Z,29.90
2022-12-15T01:12:46.991Z,33.90
2022-12-15T01:15:34.610Z,20.80
2022-12-15T01:18:22.855Z,17.10
2022-12-15T01:20:59.338Z,22.20
2022-12-15T01:23:30.279Z,21.20
2022-12-15T01:26:01.017Z,21.50
2022-12-15T01:28:31.617Z,20.20
2022-12-15T01:31:02.303Z,21.40
2022-12-15T01:33:33.267Z,17.70
2022-12-15T01:36:04.298Z,17.60
2022-12-15T01:38:34.731Z,16.70
2022-12-15T01:41:11.254Z,18.00
2022-12-15T01:43:42.558Z,19.90
2022-12-15T01:46:14.161Z,32.60
2022-12-15T01:48:47.588Z,38.90
2022-12-15T01:51:28.176Z,27.50
2022-12-15T01:54:04.331Z,17.90
2022-12-15T01:56:38.658Z,18.90
2022-12-15T01:59:10.733Z,22.10
2022-12-15T02:01:41.369Z,19.70
2022-12-15T02:04:14.103Z,19.40
2022-12-15T02:06:44.617Z,20.00
2022-12-15T02:09:15.135Z,18.50
2022-12-15T02:11:56.082Z,18.60
2022-12-15T02:14:36.134Z,17.20
2022-12-15T02:17:18.844Z,20.30
2022-12-15T02:20:35.464Z,23.30
2022-12-15T02:23:40.744Z,32.90
2022-12-15T02:26:30.779Z,47.20
2022-12-15T02:29:10.167Z,29.30
2022-12-15T02:31:53.753Z,19.30
2022-12-15T02:34:31.409Z,18.80
2022-12-15T02:37:05.312Z,18.20
2022-12-15T02:39:35.896Z,19.30
2022-12-15T02:42:06.614Z,20.20
2022-12-15T02:44:39.509Z,19.00
2022-12-15T02:47:31.187Z,22.20
2022-12-15T02:50:12.764Z,19.30
2022-12-15T02:52:53.819Z,19.30
2022-12-15T02:55:31.763Z,20.80
2022-12-15T02:58:05.917Z,23.70
2022-12-15T03:00:42.156Z,38.80
2022-12-15T03:03:13.533Z,49.30
2022-12-15T03:05:44.095Z,43.40
2022-12-15T03:08:14.660Z,26.50
2022-12-15T03:10:45.339Z,25.50
2022-12-15T03:13:15.800Z,28.80
2022-12-15T03:15:46.418Z,23.80
2022-12-15T03:18:17.156Z,22.20
2022-12-15T03:20:47.633Z,25.80
2022-12-15T03:23:18.061Z,21.30
2022-12-15T03:25:49.687Z,24.10
2022-12-15T03:28:20.924Z,24.00
2022-12-15T03:30:52.181Z,28.30
2022-12-15T03:33:23.750Z,36.20
2022-12-15T03:35:54.404Z,37.80
2022-12-15T03:38:24.934Z,44.50
2022-12-15T03:40:55.459Z,27.60
2022-12-15T03:43:26.159Z,23.50
2022-12-15T03:45:56.875Z,28.00
2022-12-15T03:48:27.388Z,23.10
2022-12-15T03:50:59.157Z,25.20
2022-12-15T03:53:29.978Z,22.70
2022-12-15T03:56:01.253Z,22.50
2022-12-15T03:58:31.768Z,21.10
2022-12-15T04:01:08.716Z,18.80
2022-12-15T04:03:39.456Z,23.30
2022-12-15T04:06:10.315Z,21.40
2022-12-15T04:08:40.786Z,21.30
2022-12-15T04:11:11.594Z,31.90
2022-12-15T04:13:44.672Z,44.40
2022-12-15T04:16:19.793Z,53.60
2022-12-15T04:19:11.064Z,35.10
2022-12-15T04:21:41.522Z,23.20
2022-12-15T04:24:29.403Z,22.60
2022-12-15T04:27:17.368Z,20.60
2022-12-15T04:30:05.125Z,22.80
2022-12-15T04:32:53.098Z,18.70
2022-12-15T04:35:41.012Z,19.40
2022-12-15T04:38:28.702Z,21.10
2022-12-15T04:41:16.544Z,24.50
2022-12-15T04:44:04.487Z,29.10
2022-12-15T04:46:52.324Z,41.90
2022-12-15T04:49:39.967Z,48.00
2022-12-15T04:52:27.843Z,35.70
2022-12-15T04:55:15.692Z,23.90
2022-12-15T04:58:03.460Z,27.80
2022-12-15T05:00:51.094Z,23.10
2022-12-15T05:03:39.393Z,20.00
2022-12-15T05:06:27.388Z,21.70
2022-12-15T05:09:15.639Z,21.40
2022-12-15T05:12:03.355Z,21.30
2022-12-15T05:14:51.297Z,21.60
2022-12-15T05:17:41.696Z,33.40
2022-12-15T05:20:30.269Z,53.80
2022-12-15T05:23:18.263Z,59.10
2022-12-15T05:26:06.161Z,61.70
2022-12-15T05:28:54.132Z,47.10
2022-12-15T05:31:42.048Z,59.60
2022-12-15T05:34:12.443Z,65.80
2022-12-15T05:36:42.890Z,37.40
2022-12-15T05:39:13.278Z,31.50
2022-12-15T05:41:43.940Z,25.90
2022-12-15T05:44:14.601Z,29.60
2022-12-15T05:46:45.149Z,33.00
2022-12-15T05:49:17.067Z,24.50
2022-12-15T05:51:48.767Z,23.80
2022-12-15T05:54:23.819Z,24.90
2022-12-15T05:56:54.321Z,53.70
2022-12-15T05:59:24.816Z,50.70
2022-12-15T06:01:55.250Z,52.30
2022-12-15T06:04:25.960Z,29.90
2022-12-15T06:06:56.453Z,33.20
2022-12-15T06:09:26.867Z,27.00
2022-12-15T06:11:58.843Z,26.50
2022-12-15T06:14:32.681Z,25.90
2022-12-15T06:17:06.100Z,17.80
2022-12-15T06:19:38.445Z,18.20
2022-12-15T06:22:10.558Z,40.40
2022-12-15T06:24:42.002Z,46.60
2022-12-15T06:27:13.304Z,25.30
2022-12-15T06:29:45.458Z,23.60
2022-12-15T06:32:17.873Z,27.30
2022-12-15T06:37:21.900Z,15.30
2022-12-15T06:42:24.950Z,17.40
2022-12-15T06:44:57.692Z,25.80
2022-12-15T06:47:29.305Z,26.80
2022-12-15T06:50:01.214Z,24.30
2022-12-15T06:52:33.420Z,27.80
2022-12-15T06:55:05.155Z,7.20
2022-12-15T06:57:38.974Z,24.50
2022-12-15T07:00:13.566Z,36.10
2022-12-15T07:02:50.101Z,19.00
2022-12-15T07:05:24.818Z,22.00
2022-12-15T07:07:57.008Z,20.00
2022-12-15T07:18:08.424Z,32.50
2022-12-15T07:20:39.276Z,46.50
2022-12-15T07:23:09.883Z,57.10
2022-12-15T07:25:40.956Z,39.90
2022-12-15T07:28:11.881Z,30.40
2022-12-15T07:30:42.400Z,33.20
2022-12-15T07:33:13.360Z,31.20
2022-12-15T07:35:43.830Z,26.40
2022-12-15T07:38:14.204Z,33.00
2022-12-15T07:40:45.626Z,30.60
2022-12-15T07:43:16.093Z,27.30
2022-12-15T07:45:51.296Z,46.80
2022-12-15T07:48:22.126Z,43.10
2022-12-15T07:51:02.744Z,40.10
2022-12-15T07:53:38.542Z,28.60
2022-12-15T07:56:10.490Z,26.70
2022-12-15T07:58:41.174Z,25.00
2022-12-15T08:01:13.956Z,34.10
2022-12-15T08:06:16.270Z,43.70
2022-12-15T08:08:50.648Z,49.30
2022-12-15T08:11:24.513Z,38.40
2022-12-15T08:14:04.043Z,35.70
2022-12-15T08:16:36.718Z,25.80
2022-12-15T08:19:08.875Z,20.40
2022-12-15T08:21:41.494Z,22.90
2022-12-15T08:24:12.915Z,24.10
2022-12-15T08:26:44.551Z,11.90
2022-12-15T08:32:11.267Z,43.00
2022-12-15T08:34:42.285Z,22.80
2022-12-15T08:37:12.741Z,29.80
2022-12-15T08:39:43.923Z,26.10
2022-12-15T08:42:14.413Z,31.50
2022-12-15T08:44:44.932Z,26.70
2022-12-15T08:47:15.449Z,30.20
2022-12-15T08:49:46.017Z,21.40
2022-12-15T08:52:16.465Z,25.50
2022-12-15T08:54:46.936Z,49.10
2022-12-15T08:57:17.397Z,39.50
2022-12-15T08:59:47.934Z,36.60
2022-12-15T09:02:18.746Z,34.60
2022-12-15T09:04:50.875Z,25.60
2022-12-15T09:07:22.888Z,28.20
2022-12-15T09:09:53.907Z,35.00
2022-12-15T09:12:24.368Z,42.90
2022-12-15T09:14:54.823Z,44.60
2022-12-15T09:17:25.886Z,46.10
2022-12-15T09:19:56.298Z,29.20
2022-12-15T09:22:26.755Z,32.70
2022-12-15T09:24:57.294Z,30.90
2022-12-15T09:27:28.151Z,22.40
2022-12-15T09:29:58.973Z,30.10
2022-12-15T09:32:29.505Z,31.00
2022-12-15T09:35:00.458Z,29.20
2022-12-15T09:37:33.144Z,50.80
2022-12-15T09:40:06.490Z,20.80
2022-12-15T09:42:36.931Z,34.20
2022-12-15T09:45:10.679Z,27.80
2022-12-15T09:47:48.795Z,31.70
2022-12-15T09:50:24.516Z,28.80
2022-12-15T09:52:56.993Z,20.20
2022-12-15T09:55:29.801Z,31.90
2022-12-15T09:58:09.125Z,25.90
2022-12-15T10:00:44.649Z,30.00
2022-12-15T10:03:31.381Z,27.80
2022-12-15T10:06:27.119Z,25.40
2022-12-15T10:09:01.624Z,30.20
2022-12-15T10:11:44.398Z,30.90
2022-12-15T10:14:28.040Z,24.00
2022-12-15T10:17:04.255Z,25.70
2022-12-15T10:19:40.256Z,24.10
2022-12-15T10:22:14.723Z,23.00
2022-12-15T10:25:09.081Z,24.90
2022-12-15T10:28:00.184Z,13.00
2022-12-15T10:30:30.730Z,33.80
2022-12-15T10:33:06.075Z,22.90
2022-12-15T10:35:39.574Z,35.80
2022-12-15T10:38:22.736Z,31.80
2022-12-15T10:43:32.257Z,30.80
2022-12-15T10:46:11.836Z,35.70
2022-12-15T10:48:42.647Z,29.90
2022-12-15T10:51:26.168Z,36.20
2022-12-15T10:54:04.522Z,26.40
2022-12-15T10:56:36.127Z,29.00
2022-12-15T10:59:22.449Z,38.40
2022-12-15T11:01:53.329Z,31.80
2022-12-15T11:04:32.137Z,28.90
2022-12-15T11:07:03.997Z,30.60
2022-12-15T11:09:37.380Z,27.80
2022-12-15T11:12:36.738Z,37.90
2022-12-15T11:15:35.966Z,31.90
2022-12-15T11:18:12.687Z,27.70
2022-12-15T11:20:45.947Z,21.50
2022-12-15T11:23:26.102Z,28.10
2022-12-15T11:26:03.282Z,29.90
2022-12-15T11:28:53.972Z,30.70
2022-12-15T11:31:28.917Z,26.10
2022-12-15T11:33:59.397Z,23.10
2022-12-15T11:36:50.874Z,27.20
2022-12-15T11:39:29.211Z,32.90
2022-12-15T11:42:04.881Z,33.00
2022-12-15T11:44:45.892Z,28.00
2022-12-15T11:47:24.559Z,31.30
2022-12-15T11:50:20.380Z,32.90
2022-12-15T11:53:11.202Z,23.00
2022-12-15T11:55:48.086Z,28.70
2022-12-15T11:58:42.295Z,30.80
2022-12-15T12:01:19.439Z,28.00
2022-12-15T12:03:59.725Z,27.00
2022-12-15T12:06:36.044Z,30.20
2022-12-15T12:09:18.877Z,30.40
2022-12-15T12:11:54.305Z,23.90
2022-12-15T12:14:36.367Z,28.00
2022-12-15T12:17:09.666Z,27.30
2022-12-15T12:19:43.697Z,32.10
2022-12-15T12:22:23.956Z,32.90
2022-12-15T12:24:57.891Z,31.50
2022-12-15T12:27:32.874Z,27.30
2022-12-15T12:30:06.476Z,25.90
2022-12-15T12:32:43.279Z,29.60
2022-12-15T12:35:31.340Z,29.60
2022-12-15T12:38:05.156Z,28.60
2022-12-15T12:40:46.599Z,29.80
2022-12-15T12:43:31.873Z,29.70
2022-12-15T12:46:06.906Z,30.70
2022-12-15T12:48:40.890Z,28.70
2022-12-15T12:51:20.505Z,33.50
2022-12-15T12:53:52.583Z,28.70
2022-12-15T12:56:34.537Z,29.00
2022-12-15T12:59:08.698Z,27.40
2022-12-15T13:01:39.881Z,33.10
2022-12-15T13:04:13.217Z,29.60
2022-12-15T13:07:02.232Z,28.30
2022-12-15T13:09:41.911Z,29.80
2022-12-15T13:12:52.853Z,33.60
2022-12-15T13:15:35.122Z,30.60
2022-12-15T13:18:13.548Z,34.20
2022-12-15T13:20:44.941Z,32.50
2022-12-15T13:23:43.142Z,34.10
2022-12-15T13:26:21.196Z,33.80
2022-12-15T13:28:56.271Z,31.60
2022-12-15T13:31:31.692Z,32.60
2022-12-15T13:34:13.004Z,33.70
2022-12-15T13:36:57.739Z,32.30
2022-12-15T13:39:58.170Z,35.70
2022-12-15T13:42:53.236Z,26.20
2022-12-15T13:45:36.627Z,32.20
2022-12-15T13:48:17.948Z,37.60
2022-12-15T13:50:53.291Z,35.40
2022-12-15T13:53:25.979Z,36.60
2022-12-15T13:56:02.119Z,36.60
2022-12-15T13:58:39.307Z,40.10
2022-12-15T14:04:15.728Z,38.90
2022-12-15T14:06:51.021Z,35.70
2022-12-15T14:09:25.562Z,33.60
2022-12-15T14:11:56.196Z,39.60
2022-12-15T14:14:28.939Z,30.80
2022-12-15T14:17:01.330Z,40.30
2022-12-15T14:19:41.164Z,46.20
2022-12-15T14:22:28.196Z,41.00
2022-12-15T14:25:05.245Z,37.10
2022-12-15T14:27:35.813Z,42.70
2022-12-15T14:30:28.209Z,33.10
2022-12-15T14:33:00.983Z,31.80
2022-12-15T14:35:34.428Z,43.70
2022-12-15T14:38:08.476Z,57.50
2022-12-15T14:40:39.894Z,44.00
2022-12-15T14:43:15.480Z,69.50
2022-12-15T14:45:46.004Z,42.10
2022-12-15T14:51:15.172Z,34.60
2022-12-15T14:53:53.057Z,64.90
2022-12-15T14:56:31.659Z,57.10
2022-12-15T14:59:04.611Z,53.50
2022-12-15T15:03:05.768Z,40.80
2022-12-15T15:04:23.140Z,56.80
2022-12-15T15:06:57.498Z,44.80
2022-12-15T15:09:29.252Z,42.90
2022-12-15T15:12:03.944Z,42.00
2022-12-15T15:14:38.631Z,41.00
2022-12-15T15:17:16.884Z,35.70
2022-12-15T15:19:51.832Z,40.70
2022-12-15T15:22:40.822Z,45.10
2022-12-15T15:25:33.636Z,56.50
2022-12-15T15:28:16.712Z,93.10
2022-12-15T15:30:49.507Z,84.20
2022-12-15T15:35:52.928Z,33.30
2022-12-15T15:38:27.923Z,23.10
2022-12-15T15:41:00.133Z,17.40
2022-12-15T15:43:31.407Z,15.70
2022-12-15T15:46:03.503Z,15.00
2022-12-15T15:48:36.598Z,15.80
2022-12-15T15:51:08.308Z,14.20
2022-12-15T15:53:40.023Z,12.30
2022-12-15T15:56:12.613Z,12.70
2022-12-15T15:58:43.807Z,14.20
2022-12-15T16:01:14.589Z,23.10
2022-12-15T16:03:45.106Z,23.30
2022-12-15T16:06:18.722Z,22.30
2022-12-15T16:08:50.139Z,11.40
2022-12-15T16:11:20.714Z,10.40
2022-12-15T16:13:51.259Z,11.60
2022-12-15T16:16:24.048Z,10.20
2022-12-15T16:18:54.629Z,7.40
2022-12-15T16:21:28.063Z,9.50
2022-12-15T16:23:59.348Z,10.90
2022-12-15T16:26:30.966Z,8.60
2022-12-15T16:29:01.371Z,14.40
2022-12-15T16:31:40.657Z,14.80
2022-12-15T16:34:11.983Z,13.20
2022-12-15T16:36:42.548Z,12.00
2022-12-15T16:39:24.198Z,12.50
2022-12-15T16:41:55.490Z,13.30
2022-12-15T16:44:26.686Z,12.80
2022-12-15T16:46:57.500Z,12.20
2022-12-15T16:49:33.871Z,10.20
2022-12-15T16:52:09.173Z,10.80
2022-12-15T16:54:39.672Z,19.00
2022-12-15T16:57:12.617Z,18.50
2022-12-15T17:02:29.733Z,20.10
2022-12-15T17:05:00.343Z,15.10
2022-12-15T17:07:30.824Z,12.90
2022-12-15T17:10:02.248Z,11.20
2022-12-15T17:12:32.743Z,12.10
2022-12-15T17:15:04.036Z,10.10
2022-12-15T17:17:34.440Z,9.40
2022-12-15T17:20:28.584Z,7.70
2022-12-15T17:22:59.955Z,9.10
2022-12-15T17:26:09.316Z,12.00
2022-12-15T17:28:28.345Z,10.30
2022-12-15T17:30:59.030Z,9.50
2022-12-15T17:33:30.922Z,13.40
2022-12-15T17:36:04.571Z,16.10
2022-12-15T17:38:35.033Z,18.10
2022-12-15T17:41:05.528Z,22.50
2022-12-15T17:43:36.452Z,21.80
2022-12-15T17:46:07.448Z,23.90
2022-12-15T17:48:37.945Z,18.90
2022-12-15T17:51:14.750Z,18.30
2022-12-15T17:53:46.792Z,16.50
2022-12-15T17:56:19.686Z,14.50
2022-12-15T18:01:19.039Z,13.00
2022-12-15T18:03:49.551Z,10.40
2022-12-15T18:06:20.422Z,13.10
2022-12-15T18:08:50.852Z,14.70
2022-12-15T18:11:21.365Z,13.60
2022-12-15T18:13:51.914Z,10.50
2022-12-15T18:16:22.310Z,13.60
2022-12-15T18:18:53.460Z,10.40
2022-12-15T18:21:24.935Z,15.30
2022-12-15T18:23:55.387Z,11.80
2022-12-15T18:26:26.194Z,11.80
2022-12-15T18:28:56.604Z,10.60
2022-12-15T18:31:28.288Z,9.30
2022-12-15T18:34:04.384Z,8.40
2022-12-15T18:36:35.512Z,7.60
2022-12-15T18:39:19.027Z,5.50
2022-12-15T18:41:50.544Z,6.40
2022-12-15T18:44:25.809Z,5.50
2022-12-15T18:46:57.006Z,5.80
2022-12-15T18:49:28.349Z,4.80
2022-12-15T18:51:58.773Z,4.30
2022-12-15T18:54:29.608Z,5.30
2022-12-15T18:57:00.018Z,4.90
2022-12-15T18:59:30.697Z,5.70
2022-12-15T19:02:01.161Z,5.30
2022-12-15T19:04:33.208Z,4.30
2022-12-15T19:07:06.552Z,3.50
2022-12-15T19:09:36.995Z,4.10
2022-12-15T19:12:20.103Z,6.00
2022-12-15T19:14:51.872Z,5.10
2022-12-15T19:17:41.421Z,5.40
2022-12-15T19:20:35.689Z,4.20
2022-12-15T19:23:06.728Z,6.50
2022-12-15T19:25:37.808Z,5.80
2022-12-15T19:28:15.807Z,6.10
2022-12-15T19:30:46.519Z,7.40
2022-12-15T19:33:17.760Z,7.50
2022-12-15T19:35:51.359Z,5.60
2022-12-15T19:38:25.029Z,7.20
2022-12-15T19:40:57.448Z,8.30
2022-12-15T19:43:28.470Z,5.30
2022-12-15T19:45:59.009Z,6.60
2022-12-15T19:48:29.608Z,16.60
2022-12-15T19:51:00.026Z,8.50
2022-12-15T19:53:31.553Z,6.30
2022-12-15T19:56:02.786Z,5.20
2022-12-15T19:58:34.632Z,4.70
2022-12-15T20:01:08.179Z,4.40
2022-12-15T20:03:39.639Z,5.00
2022-12-15T20:06:15.109Z,6.10
2022-12-15T20:08:47.254Z,8.50
2022-12-15T20:11:20.488Z,6.80
2022-12-15T20:13:51.865Z,5.10
2022-12-15T20:16:22.783Z,4.50
2022-12-15T20:18:54.810Z,3.90
2022-12-15T20:21:28.575Z,4.60
2022-12-15T20:24:02.230Z,2.30
2022-12-15T20:26:32.861Z,3.20
2022-12-15T20:29:03.565Z,3.50
2022-12-15T20:31:34.266Z,3.00
2022-12-15T20:34:04.641Z,2.10
2022-12-15T20:36:36.365Z,2.70
2022-12-15T20:39:08.138Z,3.60
2022-12-15T20:41:38.724Z,3.40
2022-12-15T20:44:14.665Z,4.20
2022-12-15T20:46:45.345Z,4.10
2022-12-15T20:49:19.130Z,3.90
2022-12-15T20:51:50.841Z,6.20
2022-12-15T20:54:22.926Z,9.00
2022-12-15T20:56:53.637Z,5.40
2022-12-15T20:59:24.050Z,5.80
2022-12-15T21:01:54.794Z,7.10
2022-12-15T21:04:28.503Z,5.20
2022-12-15T21:06:59.057Z,4.80
2022-12-15T21:09:29.528Z,6.20
2022-12-15T21:12:04.373Z,5.50
2022-12-15T21:14:37.815Z,5.20
2022-12-15T21:17:10.182Z,4.50
2022-12-15T21:19:40.583Z,3.80
2022-12-15T21:22:18.911Z,5.80
2022-12-15T21:24:50.600Z,6.10
2022-12-15T21:27:21.656Z,4.10
2022-12-15T21:29:53.241Z,6.30
2022-12-15T21:39:40.119Z,5.30
2022-12-15T21:42:15.940Z,6.40
2022-12-15T21:44:46.704Z,4.80
2022-12-15T21:47:26.013Z,4.50
2022-12-15T21:49:57.508Z,5.90
2022-12-15T21:52:28.961Z,6.10
2022-12-15T21:55:04.079Z,7.10
2022-12-15T21:57:34.544Z,4.60
2022-12-15T22:00:07.016Z,6.60
2022-12-15T22:02:43.072Z,4.10
2022-12-15T22:05:18.816Z,6.60
2022-12-15T22:07:49.905Z,5.90
2022-12-15T22:10:22.063Z,5.10
2022-12-15T22:12:59.285Z,5.60
2022-12-15T22:15:31.251Z,6.80
2022-12-15T22:18:01.708Z,4.90
2022-12-15T22:20:32.138Z,5.00
2022-12-15T22:23:02.645Z,5.00
2022-12-15T22:25:33.055Z,5.60
2022-12-15T22:28:03.399Z,5.30
2022-12-15T22:30:33.855Z,3.70
2022-12-15T22:33:09.796Z,5.10
2022-12-15T22:35:40.193Z,4.30
2022-12-15T22:38:10.699Z,2.80
2022-12-15T22:40:41.102Z,3.50
2022-12-15T22:43:19.842Z,3.20
2022-12-15T22:45:52.183Z,3.70
2022-12-15T22:48:23.777Z,6.90
2022-12-15T22:50:54.368Z,4.80
2022-12-15T22:53:27.373Z,5.00
2022-12-15T22:55:58.175Z,4.70
2022-12-15T22:58:31.804Z,5.30
2022-12-15T23:01:02.478Z,4.50
2022-12-15T23:03:33.348Z,2.10
2022-12-15T23:06:04.801Z,3.50
2022-12-15T23:08:35.407Z,4.00
2022-12-15T23:11:23.694Z,4.50
2022-12-15T23:13:54.114Z,5.90
2022-12-15T23:16:25.733Z,2.50
2022-12-15T23:18:57.354Z,3.10
2022-12-15T23:21:27.768Z,2.80
2022-12-15T23:23:58.697Z,1.90
2022-12-15T23:26:29.301Z,2.50
2022-12-15T23:28:59.962Z,3.70
2022-12-15T23:31:30.546Z,3.80
2022-12-15T23:34:01.335Z,1.90
2022-12-15T23:36:32.762Z,3.30
2022-12-15T23:39:03.308Z,5.40
2022-12-15T23:41:33.767Z,4.90
2022-12-15T23:44:04.189Z,4.10
2022-12-15T23:46:34.713Z,4.00
2022-12-15T23:49:05.230Z,3.80
2022-12-15T23:51:35.671Z,3.40
2022-12-15T23:54:06.368Z,2.70
2022-12-15T23:56:36.721Z,2.80
2022-12-15T23:59:07.130Z,2.90
